createdAt,value
2022-08-26T00:01:59.271Z,62.34
2022-08-26T00:05:04.071Z,62.43
2022-08-26T00:08:08.453Z,62.32
2022-08-26T00:11:15.967Z,62.34
2022-08-26T00:14:30.880Z,62.25
2022-08-26T00:17:34.572Z,62.43
2022-08-26T00:20:37.578Z,62.52
2022-08-26T00:23:41.619Z,62.42
2022-08-26T00:26:44.773Z,62.30
2022-08-26T00:29:47.668Z,62.51
2022-08-26T00:32:51.245Z,62.42
2022-08-26T00:35:55.377Z,62.62
2022-08-26T00:38:58.837Z,62.58
2022-08-26T00:42:01.967Z,62.66
2022-08-26T00:45:11.630Z,62.72
2022-08-26T00:48:17.949Z,62.65
2022-08-26T00:51:29.806Z,62.71
2022-08-26T00:54:42.261Z,62.68
2022-08-26T00:57:47.776Z,62.63
2022-08-26T01:00:52.470Z,62.55
2022-08-26T01:03:56.141Z,62.54
2022-08-26T01:07:00.011Z,62.60
2022-08-26T01:10:08.385Z,62.59
2022-08-26T01:13:13.193Z,62.60
2022-08-26T01:16:17.106Z,62.45
2022-08-26T01:19:32.401Z,62.44
2022-08-26T01:22:55.431Z,62.36
2022-08-26T01:26:03.129Z,62.35
2022-08-26T01:29:23.842Z,62.37
2022-08-26T01:32:28.403Z,62.54
2022-08-26T01:35:31.340Z,62.37
2022-08-26T01:38:34.974Z,62.39
2022-08-26T01:41:40.643Z,62.39
2022-08-26T01:44:52.269Z,62.30
2022-08-26T01:47:58.580Z,62.35
2022-08-26T01:51:05.737Z,62.44
2022-08-26T01:54:12.091Z,62.38
2022-08-26T01:57:21.980Z,62.34
2022-08-26T02:00:26.761Z,62.18
2022-08-26T02:03:30.984Z,62.31
2022-08-26T02:06:38.733Z,62.27
2022-08-26T02:09:43.512Z,62.20
2022-08-26T02:12:46.540Z,62.13
2022-08-26T02:15:49.870Z,62.25
2022-08-26T02:18:53.889Z,62.28
2022-08-26T02:22:07.072Z,62.29
2022-08-26T02:25:28.175Z,62.35
2022-08-26T02:28:47.112Z,62.18
2022-08-26T02:31:51.938Z,62.24
2022-08-26T02:34:54.904Z,62.20
2022-08-26T02:37:58.314Z,62.17
2022-08-26T02:41:02.129Z,62.37
2022-08-26T02:44:07.208Z,62.31
2022-08-26T02:47:13.247Z,62.34
2022-08-26T02:50:16.211Z,62.22
2022-08-26T02:53:25.087Z,62.22
2022-08-26T02:56:29.406Z,62.13
2022-08-26T02:59:33.459Z,62.17
2022-08-26T03:02:36.599Z,62.13
2022-08-26T03:05:40.179Z,62.01
2022-08-26T03:08:43.241Z,61.95
2022-08-26T03:11:47.283Z,61.97
2022-08-26T03:14:50.238Z,61.95
2022-08-26T03:17:54.646Z,61.79
2022-08-26T03:21:17.599Z,61.77
2022-08-26T03:24:21.279Z,61.81
2022-08-26T03:27:24.313Z,61.85
2022-08-26T03:30:39.961Z,61.88
2022-08-26T03:33:48.541Z,61.93
2022-08-26T03:36:57.679Z,61.96
2022-08-26T03:40:01.721Z,61.85
2022-08-26T03:43:06.764Z,61.90
2022-08-26T03:46:20.649Z,61.89
2022-08-26T03:49:24.230Z,61.96
2022-08-26T03:52:27.138Z,61.98
2022-08-26T03:55:32.513Z,61.93
2022-08-26T03:58:37.362Z,61.98
2022-08-26T04:01:40.911Z,61.94
2022-08-26T04:04:43.864Z,62.09
2022-08-26T04:07:48.521Z,62.03
2022-08-26T04:10:51.604Z,62.19
2022-08-26T04:13:54.580Z,62.11
2022-08-26T04:16:57.492Z,62.26
2022-08-26T04:20:00.688Z,62.21
2022-08-26T04:23:04.461Z,62.30
2022-08-26T04:26:08.760Z,62.37
2022-08-26T04:29:18.961Z,62.33
2022-08-26T04:32:22.224Z,62.36
2022-08-26T04:35:26.249Z,62.44
2022-08-26T04:38:30.390Z,62.58
2022-08-26T04:41:33.686Z,62.52
2022-08-26T04:44:37.709Z,62.49
2022-08-26T04:47:40.623Z,62.40
2022-08-26T04:50:43.715Z,62.34
2022-08-26T04:53:47.025Z,62.17
2022-08-26T04:56:50.811Z,62.12
2022-08-26T04:59:54.207Z,62.02
2022-08-26T05:02:57.502Z,62.02
2022-08-26T05:06:05.523Z,61.91
2022-08-26T05:09:08.577Z,61.96
2022-08-26T05:12:11.604Z,62.19
2022-08-26T05:15:14.566Z,62.16
2022-08-26T05:18:21.349Z,62.19
2022-08-26T05:21:29.164Z,62.35
2022-08-26T05:24:32.108Z,62.12
2022-08-26T05:27:35.064Z,62.18
2022-08-26T05:30:38.870Z,62.07
2022-08-26T05:33:43.471Z,62.06
2022-08-26T05:36:46.684Z,61.86
2022-08-26T05:39:51.155Z,61.85
2022-08-26T05:42:55.124Z,61.79
2022-08-26T05:46:06.625Z,61.98
2022-08-26T05:49:12.651Z,61.94
2022-08-26T05:52:15.957Z,61.93
2022-08-26T05:55:20.321Z,61.98
2022-08-26T05:58:24.193Z,61.96
2022-08-26T06:01:30.101Z,62.07
2022-08-26T06:04:33.084Z,61.96
2022-08-26T06:07:54.841Z,62.00
2022-08-26T06:11:02.474Z,62.01
2022-08-26T06:14:07.905Z,61.77
2022-08-26T06:17:11.239Z,61.79
2022-08-26T06:20:16.159Z,61.45
2022-08-26T06:23:39.273Z,61.32
2022-08-26T06:26:50.377Z,61.15
2022-08-26T06:29:54.836Z,61.00
2022-08-26T06:32:57.797Z,60.87
2022-08-26T06:36:01.560Z,60.85
2022-08-26T06:39:10.358Z,60.75
2022-08-26T06:42:13.523Z,60.67
2022-08-26T06:45:17.859Z,60.83
2022-08-26T06:48:21.623Z,60.58
2022-08-26T06:51:28.329Z,60.24
2022-08-26T06:54:31.895Z,60.03
2022-08-26T06:57:37.677Z,60.10
2022-08-26T07:00:47.173Z,59.90
2022-08-26T07:03:52.544Z,59.72
2022-08-26T07:06:57.674Z,59.64
2022-08-26T07:10:00.647Z,59.48
2022-08-26T07:13:05.834Z,59.58
2022-08-26T07:16:13.613Z,59.54
2022-08-26T07:19:30.209Z,59.27
2022-08-26T07:22:37.218Z,59.13
2022-08-26T07:25:42.027Z,59.21
2022-08-26T07:28:46.579Z,59.01
2022-08-26T07:31:49.762Z,58.70
2022-08-26T07:34:52.897Z,58.49
2022-08-26T07:37:57.174Z,58.29
2022-08-26T07:41:01.902Z,58.06
2022-08-26T07:44:05.338Z,58.09
2022-08-26T07:47:24.727Z,57.53
2022-08-26T07:50:49.497Z,56.66
2022-08-26T07:53:54.359Z,56.21
2022-08-26T07:56:58.251Z,56.03
2022-08-26T08:00:02.289Z,55.85
2022-08-26T08:03:15.262Z,55.42
2022-08-26T08:06:19.833Z,55.32
2022-08-26T08:09:24.677Z,54.81
2022-08-26T08:12:27.768Z,54.53
2022-08-26T08:15:33.157Z,54.41
2022-08-26T08:18:38.565Z,53.86
2022-08-26T08:21:44.019Z,53.71
2022-08-26T08:24:49.975Z,53.61
2022-08-26T08:27:55.928Z,53.23
2022-08-26T08:31:00.778Z,53.35
2022-08-26T08:34:04.322Z,53.29
2022-08-26T08:37:10.654Z,53.22
2022-08-26T08:40:19.004Z,52.98
2022-08-26T08:43:37.698Z,52.62
2022-08-26T08:46:42.691Z,52.60
2022-08-26T08:49:46.655Z,52.62
2022-08-26T08:53:02.462Z,52.58
2022-08-26T08:56:08.483Z,52.77
2022-08-26T08:59:20.416Z,52.59
2022-08-26T09:02:32.198Z,52.51
2022-08-26T09:05:45.440Z,51.68
2022-08-26T09:08:52.554Z,51.77
2022-08-26T09:11:56.565Z,51.46
2022-08-26T09:15:30.200Z,51.02
2022-08-26T09:19:08.243Z,50.66
2022-08-26T09:22:28.313Z,49.49
2022-08-26T09:25:31.338Z,49.45
2022-08-26T09:28:34.271Z,48.84
2022-08-26T09:31:42.297Z,48.98
2022-08-26T09:34:57.342Z,49.16
2022-08-26T09:38:00.530Z,48.68
2022-08-26T09:41:08.373Z,47.65
2022-08-26T09:44:14.740Z,47.24
2022-08-26T09:47:32.490Z,47.11
2022-08-26T09:50:58.074Z,46.65
2022-08-26T09:54:03.033Z,45.95
2022-08-26T09:57:24.258Z,46.04
2022-08-26T10:00:35.052Z,46.02
2022-08-26T10:03:43.064Z,45.52
2022-08-26T10:07:01.822Z,45.30
2022-08-26T10:10:09.344Z,45.16
2022-08-26T10:13:17.737Z,44.10
2022-08-26T10:16:46.293Z,43.72
2022-08-26T10:19:56.470Z,42.98
2022-08-26T10:23:16.391Z,42.70
2022-08-26T10:26:46.118Z,42.43
2022-08-26T10:30:03.989Z,42.14
2022-08-26T10:33:10.664Z,41.69
2022-08-26T10:36:52.365Z,42.05
2022-08-26T10:40:13.280Z,41.90
2022-08-26T10:43:25.651Z,41.74
2022-08-26T10:46:39.791Z,41.64
2022-08-26T10:49:47.212Z,40.67
2022-08-26T10:53:00.569Z,40.58
2022-08-26T10:56:26.059Z,39.62
2022-08-26T11:00:24.494Z,39.75
2022-08-26T11:03:57.854Z,39.98
2022-08-26T11:07:28.643Z,39.80
2022-08-26T11:10:54.941Z,38.68
2022-08-26T11:14:18.018Z,39.23
2022-08-26T11:17:46.981Z,38.98
2022-08-26T11:20:49.954Z,39.29
2022-08-26T11:23:53.968Z,39.04
2022-08-26T11:26:57.480Z,38.37
2022-08-26T11:30:06.757Z,38.37
2022-08-26T11:33:31.424Z,37.87
2022-08-26T11:36:35.181Z,37.37
2022-08-26T11:39:55.323Z,36.60
2022-08-26T11:43:07.064Z,36.19
2022-08-26T11:46:13.019Z,36.02
2022-08-26T11:49:17.419Z,35.82
2022-08-26T11:52:22.281Z,35.91
2022-08-26T11:55:25.429Z,36.55
2022-08-26T11:58:30.130Z,36.42
2022-08-26T12:01:36.314Z,36.22
2022-08-26T12:04:43.396Z,36.27
2022-08-26T12:07:50.902Z,35.90
2022-08-26T12:11:12.139Z,35.89
2022-08-26T12:14:24.631Z,35.37
2022-08-26T12:17:28.359Z,35.66
2022-08-26T12:20:48.318Z,35.62
2022-08-26T12:23:54.773Z,35.59
2022-08-26T12:27:23.749Z,35.56
2022-08-26T12:30:26.777Z,36.45
2022-08-26T12:33:31.071Z,35.95
2022-08-26T12:36:39.351Z,35.09
2022-08-26T12:39:44.852Z,34.91
2022-08-26T12:42:47.859Z,35.07
2022-08-26T12:45:58.206Z,35.41
2022-08-26T12:49:01.920Z,34.98
2022-08-26T12:52:29.979Z,34.91
2022-08-26T12:55:33.047Z,35.11
2022-08-26T12:58:39.934Z,34.47
2022-08-26T13:01:44.643Z,35.06
2022-08-26T13:04:48.821Z,35.34
2022-08-26T13:08:12.386Z,35.19
2022-08-26T13:11:20.804Z,34.81
2022-08-26T13:14:24.797Z,35.13
2022-08-26T13:17:29.808Z,34.85
2022-08-26T13:20:33.023Z,34.92
2022-08-26T13:23:40.619Z,34.73
2022-08-26T13:26:49.606Z,34.35
2022-08-26T13:29:54.033Z,34.67
2022-08-26T13:33:00.622Z,34.71
2022-08-26T13:36:05.882Z,35.24
2022-08-26T13:39:08.909Z,35.18
2022-08-26T13:42:11.951Z,35.63
2022-08-26T13:45:15.208Z,35.22
2022-08-26T13:48:22.857Z,35.18
2022-08-26T13:51:27.812Z,35.59
2022-08-26T13:54:38.496Z,35.55
2022-08-26T13:57:44.760Z,34.78
2022-08-26T14:00:48.243Z,35.17
2022-08-26T14:03:51.882Z,35.21
2022-08-26T14:06:55.854Z,35.19
2022-08-26T14:10:02.993Z,35.45
2022-08-26T14:13:06.391Z,35.40
2022-08-26T14:16:22.916Z,35.66
2022-08-26T14:19:25.995Z,35.39
2022-08-26T14:22:29.092Z,35.17
2022-08-26T14:25:33.704Z,35.74
2022-08-26T14:28:37.945Z,35.49
2022-08-26T14:31:41.081Z,35.25
2022-08-26T14:34:44.086Z,35.68
2022-08-26T14:37:47.399Z,35.99
2022-08-26T14:40:50.454Z,36.16
2022-08-26T14:44:00.153Z,36.04
2022-08-26T14:47:09.849Z,36.48
2022-08-26T14:50:15.169Z,36.84
2022-08-26T14:53:36.829Z,36.78
2022-08-26T14:56:42.760Z,36.94
2022-08-26T14:59:50.104Z,36.71
2022-08-26T15:02:53.390Z,36.94
2022-08-26T15:05:58.413Z,36.90
2022-08-26T15:09:04.590Z,37.14
2022-08-26T15:12:07.699Z,37.07
2022-08-26T15:15:17.362Z,37.15
2022-08-26T15:18:20.747Z,37.49
2022-08-26T15:21:25.212Z,37.63
2022-08-26T15:24:29.116Z,38.07
2022-08-26T15:27:32.614Z,38.11
2022-08-26T15:30:35.778Z,38.53
2022-08-26T15:33:39.448Z,39.15
2022-08-26T15:36:44.815Z,39.39
2022-08-26T15:39:47.994Z,39.55
2022-08-26T15:42:57.557Z,40.00
2022-08-26T15:46:05.122Z,40.27
2022-08-26T15:49:08.668Z,40.60
2022-08-26T15:52:21.253Z,40.74
2022-08-26T15:55:26.665Z,40.75
2022-08-26T15:58:32.330Z,40.85
2022-08-26T16:01:36.396Z,41.04
2022-08-26T16:04:39.373Z,40.93
2022-08-26T16:07:42.323Z,41.01
2022-08-26T16:10:50.289Z,40.97
2022-08-26T16:13:54.000Z,41.21
2022-08-26T16:16:59.967Z,41.42
2022-08-26T16:20:03.973Z,41.59
2022-08-26T16:23:07.493Z,41.81
2022-08-26T16:26:15.155Z,41.67
2022-08-26T16:29:18.617Z,41.77
2022-08-26T16:32:21.526Z,41.94
2022-08-26T16:35:27.646Z,42.24
2022-08-26T16:38:30.781Z,42.27
2022-08-26T16:41:35.118Z,42.92
2022-08-26T16:44:45.115Z,43.17
2022-08-26T16:47:49.158Z,43.32
2022-08-26T16:50:54.468Z,43.89
2022-08-26T16:53:59.075Z,44.22
2022-08-26T16:57:02.710Z,44.61
2022-08-26T17:00:10.505Z,44.90
2022-08-26T17:03:13.624Z,45.17
2022-08-26T17:06:17.214Z,45.55
2022-08-26T17:09:20.846Z,45.88
2022-08-26T17:12:23.838Z,45.91
2022-08-26T17:15:26.983Z,46.13
2022-08-26T17:18:30.413Z,46.52
2022-08-26T17:21:35.474Z,46.83
2022-08-26T17:24:39.368Z,46.95
2022-08-26T17:27:42.827Z,47.08
2022-08-26T17:30:46.029Z,47.14
2022-08-26T17:33:53.673Z,47.21
2022-08-26T17:36:57.188Z,47.41
2022-08-26T17:40:00.397Z,47.38
2022-08-26T17:43:03.536Z,47.53
2022-08-26T17:46:08.859Z,47.68
2022-08-26T17:49:12.269Z,47.67
2022-08-26T17:52:15.324Z,47.60
2022-08-26T17:55:19.268Z,47.61
2022-08-26T17:58:23.747Z,47.85
2022-08-26T18:01:28.190Z,48.23
2022-08-26T18:04:31.498Z,48.44
2022-08-26T18:07:37.736Z,48.51
2022-08-26T18:10:47.911Z,48.50
2022-08-26T18:13:51.424Z,48.56
2022-08-26T18:16:54.308Z,48.88
2022-08-26T18:19:57.921Z,49.03
2022-08-26T18:23:00.955Z,49.02
2022-08-26T18:26:04.071Z,49.13
2022-08-26T18:29:08.120Z,49.12
2022-08-26T18:32:11.138Z,49.69
2022-08-26T18:35:14.507Z,49.63
2022-08-26T18:38:17.747Z,49.72
2022-08-26T18:41:24.340Z,49.81
2022-08-26T18:44:27.308Z,49.79
2022-08-26T18:47:32.032Z,49.86
2022-08-26T18:50:39.823Z,49.88
2022-08-26T18:53:43.055Z,50.08
2022-08-26T18:56:46.313Z,50.07
2022-08-26T18:59:49.402Z,50.13
2022-08-26T19:02:52.445Z,50.35
2022-08-26T19:05:59.204Z,50.67
2022-08-26T19:09:06.666Z,50.81
2022-08-26T19:12:11.960Z,51.04
2022-08-26T19:15:15.314Z,50.92
2022-08-26T19:18:19.556Z,51.04
2022-08-26T19:21:23.088Z,51.05
2022-08-26T19:24:28.305Z,51.04
2022-08-26T19:27:32.373Z,51.26
2022-08-26T19:30:43.860Z,51.26
2022-08-26T19:33:46.981Z,51.31
2022-08-26T19:36:53.171Z,51.15
2022-08-26T19:39:56.248Z,51.30
2022-08-26T19:42:59.375Z,51.40
2022-08-26T19:46:09.568Z,51.43
2022-08-26T19:49:12.568Z,51.63
2022-08-26T19:52:15.647Z,51.66
2022-08-26T19:55:20.819Z,51.61
2022-08-26T19:58:24.283Z,51.67
2022-08-26T20:01:27.438Z,51.84
2022-08-26T20:04:32.096Z,52.01
2022-08-26T20:07:35.216Z,52.12
2022-08-26T20:10:38.237Z,52.02
2022-08-26T20:13:46.791Z,52.15
2022-08-26T20:16:50.105Z,52.17
2022-08-26T20:20:14.755Z,52.27
2022-08-26T20:23:36.617Z,52.28
2022-08-26T20:26:41.635Z,52.34
2022-08-26T20:29:46.329Z,52.46
2022-08-26T20:32:51.330Z,52.41
2022-08-26T20:35:54.963Z,52.42
2022-08-26T20:38:58.801Z,52.50
2022-08-26T20:42:06.801Z,52.61
2022-08-26T20:45:24.237Z,52.56
2022-08-26T20:48:34.829Z,52.73
2022-08-26T20:51:38.567Z,52.85
2022-08-26T20:54:44.039Z,52.74
2022-08-26T20:57:48.774Z,52.59
2022-08-26T21:00:57.893Z,52.61
2022-08-26T21:04:07.102Z,52.57
2022-08-26T21:07:10.248Z,52.59
2022-08-26T21:10:15.817Z,52.63
2022-08-26T21:13:19.436Z,52.76
2022-08-26T21:16:22.646Z,52.83
2022-08-26T21:19:27.075Z,52.85
2022-08-26T21:22:30.067Z,52.68
2022-08-26T21:25:33.345Z,52.80
2022-08-26T21:28:38.605Z,52.84
2022-08-26T21:31:46.118Z,52.86
2022-08-26T21:34:50.081Z,52.94
2022-08-26T21:37:53.012Z,52.75
2022-08-26T21:41:01.555Z,52.64
2022-08-26T21:44:04.526Z,52.73
2022-08-26T21:47:07.508Z,52.67
2022-08-26T21:50:10.957Z,52.73
2022-08-26T21:53:15.556Z,52.66
2022-08-26T21:56:21.000Z,52.66
2022-08-26T21:59:24.696Z,52.69
2022-08-26T22:02:27.650Z,52.81
2022-08-26T22:05:30.602Z,52.75
2022-08-26T22:08:33.640Z,52.87
2022-08-26T22:11:36.862Z,52.78
2022-08-26T22:14:39.963Z,52.79
2022-08-26T22:17:42.926Z,52.71
2022-08-26T22:20:45.856Z,52.67
2022-08-26T22:23:48.875Z,52.57
2022-08-26T22:26:52.227Z,52.52
2022-08-26T22:29:55.164Z,52.52
2022-08-26T22:32:58.267Z,52.35
2022-08-26T22:36:01.230Z,52.50
2022-08-26T22:39:05.046Z,52.42
2022-08-26T22:42:08.031Z,52.32
2022-08-26T22:45:12.233Z,52.53
2022-08-26T22:48:20.025Z,52.40
2022-08-26T22:51:23.216Z,52.67
2022-08-26T22:54:26.179Z,52.75
2022-08-26T22:57:29.117Z,52.74
2022-08-26T23:00:32.632Z,52.63
2022-08-26T23:03:35.907Z,52.59
2022-08-26T23:06:41.385Z,52.44
2022-08-26T23:09:44.364Z,52.58
2022-08-26T23:12:47.310Z,52.52
2022-08-26T23:16:00.249Z,52.56
2022-08-26T23:19:04.678Z,52.60
2022-08-26T23:22:07.686Z,52.50
2022-08-26T23:25:11.057Z,52.33
2022-08-26T23:28:14.037Z,52.37
2022-08-26T23:31:17.049Z,52.24
2022-08-26T23:34:38.932Z,52.08
2022-08-26T23:37:44.886Z,52.01
2022-08-26T23:40:49.072Z,51.76
2022-08-26T23:43:52.244Z,51.76
2022-08-26T23:46:55.361Z,51.75
2022-08-26T23:49:58.507Z,51.65
2022-08-26T23:53:08.772Z,51.49
2022-08-26T23:56:16.131Z,51.38
2022-08-26T23:59:19.281Z,51.41
